sensor_id;sensor_type;location;lat;lon;timestamp;P1;durP1;ratioP1;P2;durP2;ratioP2
28627;SDS011;15815;46.760;19.604;2023-02-02T00:01:40;5.50;;;3.13;;
28627;SDS011;15815;46.760;19.604;2023-02-02T00:04:09;5.63;;;2.90;;
28627;SDS011;15815;46.760;19.604;2023-02-02T00:06:40;5.57;;;2.90;;
28627;SDS011;15815;46.760;19.604;2023-02-02T00:09:06;8.38;;;3.00;;
28627;SDS011;15815;46.760;19.604;2023-02-02T00:11:31;9.10;;;3.65;;
28627;SDS011;15815;46.760;19.604;2023-02-02T00:13:57;5.70;;;3.30;;
28627;SDS011;15815;46.760;19.604;2023-02-02T00:18:55;6.75;;;2.88;;
28627;SDS011;15815;46.760;19.604;2023-02-02T00:21:22;3.13;;;2.60;;
28627;SDS011;15815;46.760;19.604;2023-02-02T00:23:48;5.50;;;2.55;;
28627;SDS011;15815;46.760;19.604;2023-02-02T00:26:14;4.70;;;2.95;;
28627;SDS011;15815;46.760;19.604;2023-02-02T00:28:40;5.05;;;3.03;;
28627;SDS011;15815;46.760;19.604;2023-02-02T00:31:06;4.65;;;2.67;;
28627;SDS011;15815;46.760;19.604;2023-02-02T00:33:31;4.30;;;3.10;;
28627;SDS011;15815;46.760;19.604;2023-02-02T00:35:57;5.72;;;3.20;;
28627;SDS011;15815;46.760;19.604;2023-02-02T00:38:23;5.10;;;3.03;;
28627;SDS011;15815;46.760;19.604;2023-02-02T00:40:48;4.70;;;2.83;;
28627;SDS011;15815;46.760;19.604;2023-02-02T00:43:14;6.78;;;3.28;;
28627;SDS011;15815;46.760;19.604;2023-02-02T00:45:39;5.00;;;3.55;;
28627;SDS011;15815;46.760;19.604;2023-02-02T00:48:06;7.10;;;3.80;;
28627;SDS011;15815;46.760;19.604;2023-02-02T00:50:32;5.28;;;3.08;;
28627;SDS011;15815;46.760;19.604;2023-02-02T00:52:57;5.03;;;3.17;;
28627;SDS011;15815;46.760;19.604;2023-02-02T00:55:24;6.40;;;3.47;;
28627;SDS011;15815;46.760;19.604;2023-02-02T00:57:50;6.47;;;3.25;;
28627;SDS011;15815;46.760;19.604;2023-02-02T01:00:20;4.72;;;3.42;;
28627;SDS011;15815;46.760;19.604;2023-02-02T01:02:48;5.10;;;2.97;;
28627;SDS011;15815;46.760;19.604;2023-02-02T01:05:15;5.80;;;3.38;;
28627;SDS011;15815;46.760;19.604;2023-02-02T01:07:41;5.10;;;3.33;;
28627;SDS011;15815;46.760;19.604;2023-02-02T01:10:08;7.60;;;3.60;;
28627;SDS011;15815;46.760;19.604;2023-02-02T01:12:37;4.07;;;2.85;;
28627;SDS011;15815;46.760;19.604;2023-02-02T01:15:03;5.22;;;3.05;;
28627;SDS011;15815;46.760;19.604;2023-02-02T01:17:29;6.60;;;3.78;;
28627;SDS011;15815;46.760;19.604;2023-02-02T01:19:54;4.72;;;3.20;;
28627;SDS011;15815;46.760;19.604;2023-02-02T01:22:20;6.63;;;4.13;;
28627;SDS011;15815;46.760;19.604;2023-02-02T01:24:45;6.22;;;4.05;;
28627;SDS011;15815;46.760;19.604;2023-02-02T01:27:12;4.95;;;3.20;;
28627;SDS011;15815;46.760;19.604;2023-02-02T01:29:40;4.30;;;3.20;;
28627;SDS011;15815;46.760;19.604;2023-02-02T01:32:05;7.50;;;3.85;;
28627;SDS011;15815;46.760;19.604;2023-02-02T01:34:31;7.53;;;3.80;;
28627;SDS011;15815;46.760;19.604;2023-02-02T01:36:57;6.88;;;4.43;;
28627;SDS011;15815;46.760;19.604;2023-02-02T01:39:22;13.20;;;4.15;;
28627;SDS011;15815;46.760;19.604;2023-02-02T01:41:48;6.43;;;4.10;;
28627;SDS011;15815;46.760;19.604;2023-02-02T01:47:17;6.63;;;4.38;;
28627;SDS011;15815;46.760;19.604;2023-02-02T01:49:45;9.82;;;4.35;;
28627;SDS011;15815;46.760;19.604;2023-02-02T01:52:11;7.22;;;4.97;;
28627;SDS011;15815;46.760;19.604;2023-02-02T01:54:43;11.45;;;5.70;;
28627;SDS011;15815;46.760;19.604;2023-02-02T01:57:20;9.15;;;5.05;;
28627;SDS011;15815;46.760;19.604;2023-02-02T01:59:57;8.77;;;5.15;;
28627;SDS011;15815;46.760;19.604;2023-02-02T02:02:24;9.93;;;5.85;;
28627;SDS011;15815;46.760;19.604;2023-02-02T02:04:53;6.65;;;4.57;;
28627;SDS011;15815;46.760;19.604;2023-02-02T02:07:19;8.63;;;5.43;;
28627;SDS011;15815;46.760;19.604;2023-02-02T02:09:46;9.35;;;5.43;;
28627;SDS011;15815;46.760;19.604;2023-02-02T02:12:13;11.63;;;6.88;;
28627;SDS011;15815;46.760;19.604;2023-02-02T02:14:44;17.13;;;8.77;;
28627;SDS011;15815;46.760;19.604;2023-02-02T02:17:22;7.70;;;5.15;;
28627;SDS011;15815;46.760;19.604;2023-02-02T02:20:17;8.50;;;5.28;;
28627;SDS011;15815;46.760;19.604;2023-02-02T02:26:08;10.30;;;5.75;;
28627;SDS011;15815;46.760;19.604;2023-02-02T02:41:03;15.43;;;7.60;;
28627;SDS011;15815;46.760;19.604;2023-02-02T02:43:36;12.95;;;6.13;;
28627;SDS011;15815;46.760;19.604;2023-02-02T02:46:07;9.77;;;6.63;;
28627;SDS011;15815;46.760;19.604;2023-02-02T02:48:34;7.82;;;5.43;;
28627;SDS011;15815;46.760;19.604;2023-02-02T02:54:30;6.18;;;3.65;;
28627;SDS011;15815;46.760;19.604;2023-02-02T03:08:09;7.68;;;4.15;;
28627;SDS011;15815;46.760;19.604;2023-02-02T03:10:42;9.52;;;3.75;;
28627;SDS011;15815;46.760;19.604;2023-02-02T03:13:11;7.97;;;3.55;;
28627;SDS011;15815;46.760;19.604;2023-02-02T03:15:46;4.15;;;2.80;;
28627;SDS011;15815;46.760;19.604;2023-02-02T03:18:12;6.90;;;3.42;;
28627;SDS011;15815;46.760;19.604;2023-02-02T03:20:42;7.47;;;3.20;;
28627;SDS011;15815;46.760;19.604;2023-02-02T03:23:09;7.70;;;3.38;;
28627;SDS011;15815;46.760;19.604;2023-02-02T03:25:38;7.13;;;3.83;;
28627;SDS011;15815;46.760;19.604;2023-02-02T03:28:05;6.07;;;3.45;;
28627;SDS011;15815;46.760;19.604;2023-02-02T03:30:31;6.70;;;4.47;;
28627;SDS011;15815;46.760;19.604;2023-02-02T03:32:58;6.43;;;3.90;;
28627;SDS011;15815;46.760;19.604;2023-02-02T03:35:24;10.68;;;5.18;;
28627;SDS011;15815;46.760;19.604;2023-02-02T03:37:50;6.90;;;4.20;;
28627;SDS011;15815;46.760;19.604;2023-02-02T03:40:16;5.45;;;3.20;;
28627;SDS011;15815;46.760;19.604;2023-02-02T03:42:41;7.35;;;3.88;;
28627;SDS011;15815;46.760;19.604;2023-02-02T03:45:07;6.40;;;3.55;;
28627;SDS011;15815;46.760;19.604;2023-02-02T03:47:33;3.00;;;2.40;;
28627;SDS011;15815;46.760;19.604;2023-02-02T03:50:01;4.18;;;2.67;;
28627;SDS011;15815;46.760;19.604;2023-02-02T03:52:26;4.55;;;1.90;;
28627;SDS011;15815;46.760;19.604;2023-02-02T03:54:52;2.80;;;2.00;;
28627;SDS011;15815;46.760;19.604;2023-02-02T03:57:19;2.22;;;1.52;;
28627;SDS011;15815;46.760;19.604;2023-02-02T03:59:44;2.05;;;1.65;;
28627;SDS011;15815;46.760;19.604;2023-02-02T04:02:13;4.70;;;2.00;;
28627;SDS011;15815;46.760;19.604;2023-02-02T04:04:39;2.45;;;1.27;;
28627;SDS011;15815;46.760;19.604;2023-02-02T04:07:05;3.33;;;1.17;;
28627;SDS011;15815;46.760;19.604;2023-02-02T04:09:31;1.27;;;1.05;;
28627;SDS011;15815;46.760;19.604;2023-02-02T04:11:57;1.52;;;1.00;;
28627;SDS011;15815;46.760;19.604;2023-02-02T04:14:22;1.80;;;1.30;;
28627;SDS011;15815;46.760;19.604;2023-02-02T04:16:49;2.10;;;0.98;;
28627;SDS011;15815;46.760;19.604;2023-02-02T04:19:14;1.40;;;1.10;;
28627;SDS011;15815;46.760;19.604;2023-02-02T04:21:41;2.17;;;1.17;;
28627;SDS011;15815;46.760;19.604;2023-02-02T04:24:10;2.72;;;1.25;;
28627;SDS011;15815;46.760;19.604;2023-02-02T04:26:37;1.40;;;0.90;;
28627;SDS011;15815;46.760;19.604;2023-02-02T04:29:03;1.95;;;1.27;;
28627;SDS011;15815;46.760;19.604;2023-02-02T04:31:29;3.83;;;1.30;;
28627;SDS011;15815;46.760;19.604;2023-02-02T04:33:58;3.92;;;1.17;;
28627;SDS011;15815;46.760;19.604;2023-02-02T04:36:28;1.48;;;1.08;;
28627;SDS011;15815;46.760;19.604;2023-02-02T04:38:54;2.85;;;1.08;;
28627;SDS011;15815;46.760;19.604;2023-02-02T04:41:20;2.65;;;1.50;;
28627;SDS011;15815;46.760;19.604;2023-02-02T04:43:46;3.28;;;1.80;;
28627;SDS011;15815;46.760;19.604;2023-02-02T04:46:12;4.10;;;2.20;;
28627;SDS011;15815;46.760;19.604;2023-02-02T04:48:39;2.53;;;1.75;;
28627;SDS011;15815;46.760;19.604;2023-02-02T04:51:07;3.55;;;2.05;;
28627;SDS011;15815;46.760;19.604;2023-02-02T04:53:36;3.50;;;2.50;;
28627;SDS011;15815;46.760;19.604;2023-02-02T04:56:05;2.58;;;1.40;;
28627;SDS011;15815;46.760;19.604;2023-02-02T04:58:34;1.50;;;1.38;;
28627;SDS011;15815;46.760;19.604;2023-02-02T05:01:00;2.78;;;2.03;;
28627;SDS011;15815;46.760;19.604;2023-02-02T05:03:26;2.58;;;1.45;;
28627;SDS011;15815;46.760;19.604;2023-02-02T05:05:59;2.08;;;1.02;;
28627;SDS011;15815;46.760;19.604;2023-02-02T05:08:26;1.13;;;1.02;;
28627;SDS011;15815;46.760;19.604;2023-02-02T05:10:51;2.25;;;1.52;;
28627;SDS011;15815;46.760;19.604;2023-02-02T05:13:17;9.52;;;1.83;;
28627;SDS011;15815;46.760;19.604;2023-02-02T05:15:42;1.55;;;1.38;;
28627;SDS011;15815;46.760;19.604;2023-02-02T05:18:11;2.47;;;1.20;;
28627;SDS011;15815;46.760;19.604;2023-02-02T05:20:36;2.88;;;1.45;;
28627;SDS011;15815;46.760;19.604;2023-02-02T05:23:02;2.03;;;1.15;;
28627;SDS011;15815;46.760;19.604;2023-02-02T05:25:30;3.75;;;1.65;;
28627;SDS011;15815;46.760;19.604;2023-02-02T05:27:56;3.45;;;1.23;;
28627;SDS011;15815;46.760;19.604;2023-02-02T05:30:23;7.45;;;1.30;;
28627;SDS011;15815;46.760;19.604;2023-02-02T05:32:48;1.85;;;1.10;;
28627;SDS011;15815;46.760;19.604;2023-02-02T05:35:14;4.20;;;1.55;;
28627;SDS011;15815;46.760;19.604;2023-02-02T05:37:43;1.40;;;1.30;;
28627;SDS011;15815;46.760;19.604;2023-02-02T05:40:08;1.73;;;1.10;;
28627;SDS011;15815;46.760;19.604;2023-02-02T05:42:34;2.85;;;1.67;;
28627;SDS011;15815;46.760;19.604;2023-02-02T05:45:01;9.85;;;5.35;;
28627;SDS011;15815;46.760;19.604;2023-02-02T05:47:27;6.28;;;1.60;;
28627;SDS011;15815;46.760;19.604;2023-02-02T05:49:52;2.20;;;2.00;;
28627;SDS011;15815;46.760;19.604;2023-02-02T05:52:18;2.17;;;1.40;;
28627;SDS011;15815;46.760;19.604;2023-02-02T05:54:47;5.53;;;2.33;;
28627;SDS011;15815;46.760;19.604;2023-02-02T05:57:13;10.75;;;5.00;;
28627;SDS011;15815;46.760;19.604;2023-02-02T05:59:38;12.35;;;6.15;;
28627;SDS011;15815;46.760;19.604;2023-02-02T06:02:04;6.07;;;4.03;;
28627;SDS011;15815;46.760;19.604;2023-02-02T06:04:30;5.60;;;3.55;;
28627;SDS011;15815;46.760;19.604;2023-02-02T06:06:55;2.88;;;1.88;;
28627;SDS011;15815;46.760;19.604;2023-02-02T06:09:21;2.53;;;1.77;;
28627;SDS011;15815;46.760;19.604;2023-02-02T06:11:46;3.65;;;2.08;;
28627;SDS011;15815;46.760;19.604;2023-02-02T06:14:12;4.85;;;2.53;;
28627;SDS011;15815;46.760;19.604;2023-02-02T06:16:38;7.40;;;2.83;;
28627;SDS011;15815;46.760;19.604;2023-02-02T06:19:03;4.78;;;1.88;;
28627;SDS011;15815;46.760;19.604;2023-02-02T06:21:29;5.35;;;3.13;;
28627;SDS011;15815;46.760;19.604;2023-02-02T06:23:54;5.55;;;2.47;;
28627;SDS011;15815;46.760;19.604;2023-02-02T06:26:20;3.28;;;2.13;;
28627;SDS011;15815;46.760;19.604;2023-02-02T06:28:50;5.93;;;2.08;;
28627;SDS011;15815;46.760;19.604;2023-02-02T06:31:16;5.63;;;2.40;;
28627;SDS011;15815;46.760;19.604;2023-02-02T06:33:43;10.07;;;5.38;;
28627;SDS011;15815;46.760;19.604;2023-02-02T06:36:10;7.90;;;4.35;;
28627;SDS011;15815;46.760;19.604;2023-02-02T06:38:35;7.70;;;2.50;;
28627;SDS011;15815;46.760;19.604;2023-02-02T06:41:01;7.63;;;3.50;;
28627;SDS011;15815;46.760;19.604;2023-02-02T06:43:28;7.05;;;2.03;;
28627;SDS011;15815;46.760;19.604;2023-02-02T06:45:57;4.40;;;2.40;;
28627;SDS011;15815;46.760;19.604;2023-02-02T06:48:23;7.72;;;4.22;;
28627;SDS011;15815;46.760;19.604;2023-02-02T06:50:50;10.00;;;4.45;;
28627;SDS011;15815;46.760;19.604;2023-02-02T06:53:15;5.57;;;3.05;;
28627;SDS011;15815;46.760;19.604;2023-02-02T06:55:41;6.30;;;2.97;;
28627;SDS011;15815;46.760;19.604;2023-02-02T06:58:06;9.98;;;4.05;;
28627;SDS011;15815;46.760;19.604;2023-02-02T07:00:32;8.00;;;2.85;;
28627;SDS011;15815;46.760;19.604;2023-02-02T07:02:58;5.63;;;3.33;;
28627;SDS011;15815;46.760;19.604;2023-02-02T07:05:24;5.68;;;2.75;;
28627;SDS011;15815;46.760;19.604;2023-02-02T07:07:51;7.28;;;3.72;;
28627;SDS011;15815;46.760;19.604;2023-02-02T07:10:20;5.55;;;3.35;;
28627;SDS011;15815;46.760;19.604;2023-02-02T07:12:46;5.45;;;3.78;;
28627;SDS011;15815;46.760;19.604;2023-02-02T07:15:12;6.32;;;4.28;;
28627;SDS011;15815;46.760;19.604;2023-02-02T07:17:37;4.15;;;2.30;;
28627;SDS011;15815;46.760;19.604;2023-02-02T07:20:03;6.47;;;4.03;;
28627;SDS011;15815;46.760;19.604;2023-02-02T07:22:29;4.72;;;2.72;;
28627;SDS011;15815;46.760;19.604;2023-02-02T07:24:54;3.60;;;1.50;;
28627;SDS011;15815;46.760;19.604;2023-02-02T07:27:20;3.33;;;2.58;;
28627;SDS011;15815;46.760;19.604;2023-02-02T07:29:46;5.00;;;3.00;;
28627;SDS011;15815;46.760;19.604;2023-02-02T07:32:11;3.65;;;2.70;;
28627;SDS011;15815;46.760;19.604;2023-02-02T07:34:37;3.42;;;1.10;;
28627;SDS011;15815;46.760;19.604;2023-02-02T07:37:03;3.83;;;1.55;;
28627;SDS011;15815;46.760;19.604;2023-02-02T07:39:31;4.75;;;1.77;;
28627;SDS011;15815;46.760;19.604;2023-02-02T07:41:59;4.38;;;2.30;;
28627;SDS011;15815;46.760;19.604;2023-02-02T07:44:24;3.63;;;1.77;;
28627;SDS011;15815;46.760;19.604;2023-02-02T07:46:50;3.80;;;1.80;;
28627;SDS011;15815;46.760;19.604;2023-02-02T07:49:16;5.30;;;2.50;;
28627;SDS011;15815;46.760;19.604;2023-02-02T07:51:42;4.38;;;2.15;;
28627;SDS011;15815;46.760;19.604;2023-02-02T07:54:09;6.05;;;1.95;;
28627;SDS011;15815;46.760;19.604;2023-02-02T07:56:36;3.35;;;1.40;;
28627;SDS011;15815;46.760;19.604;2023-02-02T07:59:03;2.05;;;1.33;;
28627;SDS011;15815;46.760;19.604;2023-02-02T08:01:29;3.10;;;1.77;;
28627;SDS011;15815;46.760;19.604;2023-02-02T08:03:55;2.78;;;1.40;;
28627;SDS011;15815;46.760;19.604;2023-02-02T08:06:35;3.53;;;1.85;;
28627;SDS011;15815;46.760;19.604;2023-02-02T08:09:04;5.43;;;1.60;;
28627;SDS011;15815;46.760;19.604;2023-02-02T08:11:32;3.25;;;1.50;;
28627;SDS011;15815;46.760;19.604;2023-02-02T08:14:00;3.60;;;1.55;;
28627;SDS011;15815;46.760;19.604;2023-02-02T08:16:27;3.92;;;1.77;;
28627;SDS011;15815;46.760;19.604;2023-02-02T08:18:54;5.60;;;3.88;;
28627;SDS011;15815;46.760;19.604;2023-02-02T08:21:20;8.70;;;6.30;;
28627;SDS011;15815;46.760;19.604;2023-02-02T08:23:46;5.13;;;2.88;;
28627;SDS011;15815;46.760;19.604;2023-02-02T08:28:40;3.08;;;1.73;;
28627;SDS011;15815;46.760;19.604;2023-02-02T08:31:08;3.08;;;1.55;;
28627;SDS011;15815;46.760;19.604;2023-02-02T08:33:41;2.70;;;1.50;;
28627;SDS011;15815;46.760;19.604;2023-02-02T08:36:08;2.95;;;1.60;;
28627;SDS011;15815;46.760;19.604;2023-02-02T08:38:36;7.20;;;1.83;;
28627;SDS011;15815;46.760;19.604;2023-02-02T08:41:05;4.07;;;1.90;;
28627;SDS011;15815;46.760;19.604;2023-02-02T08:43:34;4.30;;;1.60;;
28627;SDS011;15815;46.760;19.604;2023-02-02T08:46:00;9.60;;;4.35;;
28627;SDS011;15815;46.760;19.604;2023-02-02T08:48:25;6.57;;;3.33;;
28627;SDS011;15815;46.760;19.604;2023-02-02T08:50:52;6.95;;;3.15;;
28627;SDS011;15815;46.760;19.604;2023-02-02T08:53:22;6.45;;;3.45;;
28627;SDS011;15815;46.760;19.604;2023-02-02T08:56:01;5.50;;;1.63;;
28627;SDS011;15815;46.760;19.604;2023-02-02T08:58:29;3.80;;;1.92;;
28627;SDS011;15815;46.760;19.604;2023-02-02T09:01:02;3.50;;;1.75;;
28627;SDS011;15815;46.760;19.604;2023-02-02T09:03:29;5.95;;;1.42;;
28627;SDS011;15815;46.760;19.604;2023-02-02T09:05:54;5.22;;;1.92;;
28627;SDS011;15815;46.760;19.604;2023-02-02T09:08:20;3.30;;;1.77;;
28627;SDS011;15815;46.760;19.604;2023-02-02T09:10:45;3.92;;;1.70;;
28627;SDS011;15815;46.760;19.604;2023-02-02T09:13:11;3.47;;;1.65;;
28627;SDS011;15815;46.760;19.604;2023-02-02T09:15:37;4.07;;;1.85;;
28627;SDS011;15815;46.760;19.604;2023-02-02T09:18:02;10.65;;;3.20;;
28627;SDS011;15815;46.760;19.604;2023-02-02T09:20:31;7.05;;;3.55;;
28627;SDS011;15815;46.760;19.604;2023-02-02T09:22:57;4.32;;;2.15;;
28627;SDS011;15815;46.760;19.604;2023-02-02T09:25:23;3.80;;;1.67;;
28627;SDS011;15815;46.760;19.604;2023-02-02T09:27:49;2.70;;;1.42;;
28627;SDS011;15815;46.760;19.604;2023-02-02T09:30:15;5.22;;;1.50;;
28627;SDS011;15815;46.760;19.604;2023-02-02T09:33:00;3.33;;;1.52;;
28627;SDS011;15815;46.760;19.604;2023-02-02T09:35:42;5.15;;;1.25;;
28627;SDS011;15815;46.760;19.604;2023-02-02T09:38:07;5.07;;;1.40;;
28627;SDS011;15815;46.760;19.604;2023-02-02T09:40:33;4.55;;;1.60;;
28627;SDS011;15815;46.760;19.604;2023-02-02T09:43:05;4.13;;;1.35;;
28627;SDS011;15815;46.760;19.604;2023-02-02T09:45:51;5.85;;;1.38;;
28627;SDS011;15815;46.760;19.604;2023-02-02T09:51:27;3.88;;;1.45;;
28627;SDS011;15815;46.760;19.604;2023-02-02T09:53:59;3.75;;;1.85;;
28627;SDS011;15815;46.760;19.604;2023-02-02T09:56:39;4.95;;;1.70;;
28627;SDS011;15815;46.760;19.604;2023-02-02T09:59:17;5.82;;;1.83;;
28627;SDS011;15815;46.760;19.604;2023-02-02T10:01:46;7.38;;;4.22;;
28627;SDS011;15815;46.760;19.604;2023-02-02T10:04:30;4.65;;;2.55;;
28627;SDS011;15815;46.760;19.604;2023-02-02T10:07:04;6.00;;;2.70;;
28627;SDS011;15815;46.760;19.604;2023-02-02T10:09:43;6.65;;;3.20;;
28627;SDS011;15815;46.760;19.604;2023-02-02T10:12:46;5.28;;;3.25;;
28627;SDS011;15815;46.760;19.604;2023-02-02T10:16:03;6.47;;;2.95;;
28627;SDS011;15815;46.760;19.604;2023-02-02T10:21:10;4.88;;;2.13;;
28627;SDS011;15815;46.760;19.604;2023-02-02T10:23:42;5.90;;;2.97;;
28627;SDS011;15815;46.760;19.604;2023-02-02T10:26:14;6.40;;;2.28;;
28627;SDS011;15815;46.760;19.604;2023-02-02T10:28:48;6.90;;;2.45;;
28627;SDS011;15815;46.760;19.604;2023-02-02T10:34:00;3.83;;;1.30;;
28627;SDS011;15815;46.760;19.604;2023-02-02T10:39:23;5.55;;;1.05;;
28627;SDS011;15815;46.760;19.604;2023-02-02T10:44:32;4.05;;;1.30;;
28627;SDS011;15815;46.760;19.604;2023-02-02T10:47:08;5.40;;;1.40;;
28627;SDS011;15815;46.760;19.604;2023-02-02T10:49:37;5.70;;;1.73;;
28627;SDS011;15815;46.760;19.604;2023-02-02T10:52:12;4.25;;;1.65;;
28627;SDS011;15815;46.760;19.604;2023-02-02T10:54:57;8.23;;;2.55;;
28627;SDS011;15815;46.760;19.604;2023-02-02T11:02:46;4.88;;;1.92;;
28627;SDS011;15815;46.760;19.604;2023-02-02T11:05:19;4.68;;;1.83;;
28627;SDS011;15815;46.760;19.604;2023-02-02T11:07:48;3.83;;;1.98;;
28627;SDS011;15815;46.760;19.604;2023-02-02T11:10:14;7.10;;;1.90;;
28627;SDS011;15815;46.760;19.604;2023-02-02T11:12:41;4.93;;;1.77;;
28627;SDS011;15815;46.760;19.604;2023-02-02T11:18:11;9.35;;;3.08;;
28627;SDS011;15815;46.760;19.604;2023-02-02T11:20:38;6.77;;;1.77;;
28627;SDS011;15815;46.760;19.604;2023-02-02T11:23:04;6.38;;;1.85;;
28627;SDS011;15815;46.760;19.604;2023-02-02T11:25:34;5.38;;;2.25;;
28627;SDS011;15815;46.760;19.604;2023-02-02T11:28:10;12.13;;;2.35;;
28627;SDS011;15815;46.760;19.604;2023-02-02T11:30:38;9.60;;;1.73;;
28627;SDS011;15815;46.760;19.604;2023-02-02T11:33:18;5.05;;;3.20;;
28627;SDS011;15815;46.760;19.604;2023-02-02T11:35:51;7.47;;;2.45;;
28627;SDS011;15815;46.760;19.604;2023-02-02T11:38:19;6.82;;;2.10;;
28627;SDS011;15815;46.760;19.604;2023-02-02T11:41:06;5.38;;;2.03;;
28627;SDS011;15815;46.760;19.604;2023-02-02T11:43:32;4.32;;;1.88;;
28627;SDS011;15815;46.760;19.604;2023-02-02T11:46:03;8.07;;;3.22;;
28627;SDS011;15815;46.760;19.604;2023-02-02T11:48:31;6.55;;;2.42;;
28627;SDS011;15815;46.760;19.604;2023-02-02T11:51:00;7.82;;;3.03;;
28627;SDS011;15815;46.760;19.604;2023-02-02T11:53:35;7.20;;;3.00;;
28627;SDS011;15815;46.760;19.604;2023-02-02T11:56:09;5.35;;;1.80;;
28627;SDS011;15815;46.760;19.604;2023-02-02T11:58:47;8.23;;;2.35;;
28627;SDS011;15815;46.760;19.604;2023-02-02T12:01:24;14.80;;;2.67;;
28627;SDS011;15815;46.760;19.604;2023-02-02T12:04:00;4.05;;;1.60;;
28627;SDS011;15815;46.760;19.604;2023-02-02T12:06:34;7.95;;;2.22;;
28627;SDS011;15815;46.760;19.604;2023-02-02T12:09:03;8.48;;;3.00;;
28627;SDS011;15815;46.760;19.604;2023-02-02T12:17:05;5.90;;;3.15;;
28627;SDS011;15815;46.760;19.604;2023-02-02T12:25:27;27.95;;;15.93;;
28627;SDS011;15815;46.760;19.604;2023-02-02T12:33:53;11.25;;;6.10;;
28627;SDS011;15815;46.760;19.604;2023-02-02T12:45:03;6.63;;;1.92;;
28627;SDS011;15815;46.760;19.604;2023-02-02T12:53:26;11.15;;;4.55;;
28627;SDS011;15815;46.760;19.604;2023-02-02T13:04:22;3.95;;;1.58;;
28627;SDS011;15815;46.760;19.604;2023-02-02T13:07:15;3.08;;;1.55;;
28627;SDS011;15815;46.760;19.604;2023-02-02T13:15:56;6.60;;;3.28;;
28627;SDS011;15815;46.760;19.604;2023-02-02T13:18:31;9.40;;;3.63;;
28627;SDS011;15815;46.760;19.604;2023-02-02T13:21:02;9.75;;;4.03;;
28627;SDS011;15815;46.760;19.604;2023-02-02T13:23:33;20.10;;;4.93;;
28627;SDS011;15815;46.760;19.604;2023-02-02T13:26:03;10.80;;;3.55;;
28627;SDS011;15815;46.760;19.604;2023-02-02T13:28:39;6.25;;;1.95;;
28627;SDS011;15815;46.760;19.604;2023-02-02T13:31:17;6.00;;;2.00;;
28627;SDS011;15815;46.760;19.604;2023-02-02T13:33:48;6.22;;;2.90;;
28627;SDS011;15815;46.760;19.604;2023-02-02T13:36:28;14.90;;;3.08;;
28627;SDS011;15815;46.760;19.604;2023-02-02T13:38:57;5.82;;;2.13;;
28627;SDS011;15815;46.760;19.604;2023-02-02T13:41:26;8.02;;;2.53;;
28627;SDS011;15815;46.760;19.604;2023-02-02T13:43:58;6.88;;;2.75;;
28627;SDS011;15815;46.760;19.604;2023-02-02T13:49:37;13.50;;;2.30;;
28627;SDS011;15815;46.760;19.604;2023-02-02T14:00:20;7.43;;;1.90;;
28627;SDS011;15815;46.760;19.604;2023-02-02T14:02:52;11.25;;;2.97;;
28627;SDS011;15815;46.760;19.604;2023-02-02T14:05:39;9.30;;;3.17;;
28627;SDS011;15815;46.760;19.604;2023-02-02T14:08:06;6.28;;;2.75;;
28627;SDS011;15815;46.760;19.604;2023-02-02T14:10:42;12.63;;;3.63;;
28627;SDS011;15815;46.760;19.604;2023-02-02T14:13:22;8.73;;;4.32;;
28627;SDS011;15815;46.760;19.604;2023-02-02T14:15:57;9.75;;;4.28;;
28627;SDS011;15815;46.760;19.604;2023-02-02T14:34:53;8.05;;;3.60;;
28627;SDS011;15815;46.760;19.604;2023-02-02T14:37:41;11.55;;;3.85;;
28627;SDS011;15815;46.760;19.604;2023-02-02T14:42:47;9.52;;;3.58;;
28627;SDS011;15815;46.760;19.604;2023-02-02T14:45:15;8.27;;;3.65;;
28627;SDS011;15815;46.760;19.604;2023-02-02T14:50:23;7.63;;;1.98;;
28627;SDS011;15815;46.760;19.604;2023-02-02T14:52:55;7.50;;;2.25;;
28627;SDS011;15815;46.760;19.604;2023-02-02T14:55:24;6.55;;;3.58;;
28627;SDS011;15815;46.760;19.604;2023-02-02T14:57:55;12.88;;;5.90;;
28627;SDS011;15815;46.760;19.604;2023-02-02T15:00:27;14.55;;;3.92;;
28627;SDS011;15815;46.760;19.604;2023-02-02T15:02:55;19.10;;;7.03;;
28627;SDS011;15815;46.760;19.604;2023-02-02T15:05:44;9.57;;;4.40;;
28627;SDS011;15815;46.760;19.604;2023-02-02T15:08:24;7.70;;;3.47;;
28627;SDS011;15815;46.760;19.604;2023-02-02T15:11:03;5.82;;;2.03;;
28627;SDS011;15815;46.760;19.604;2023-02-02T15:13:33;9.77;;;2.83;;
28627;SDS011;15815;46.760;19.604;2023-02-02T15:16:04;7.75;;;2.47;;
28627;SDS011;15815;46.760;19.604;2023-02-02T15:18:39;10.05;;;4.38;;
28627;SDS011;15815;46.760;19.604;2023-02-02T15:21:09;13.05;;;6.97;;
28627;SDS011;15815;46.760;19.604;2023-02-02T15:23:42;5.93;;;3.40;;
28627;SDS011;15815;46.760;19.604;2023-02-02T15:26:18;8.82;;;3.53;;
28627;SDS011;15815;46.760;19.604;2023-02-02T15:33:54;8.32;;;3.30;;
28627;SDS011;15815;46.760;19.604;2023-02-02T15:36:30;7.90;;;3.30;;
28627;SDS011;15815;46.760;19.604;2023-02-02T15:38:58;11.93;;;4.20;;
28627;SDS011;15815;46.760;19.604;2023-02-02T15:41:32;4.72;;;2.90;;
28627;SDS011;15815;46.760;19.604;2023-02-02T15:44:19;5.63;;;3.50;;
28627;SDS011;15815;46.760;19.604;2023-02-02T15:46:52;9.07;;;4.05;;
28627;SDS011;15815;46.760;19.604;2023-02-02T15:49:25;7.43;;;3.70;;
28627;SDS011;15815;46.760;19.604;2023-02-02T15:51:54;15.20;;;5.47;;
28627;SDS011;15815;46.760;19.604;2023-02-02T15:56:47;6.47;;;3.58;;
28627;SDS011;15815;46.760;19.604;2023-02-02T15:59:16;9.10;;;3.13;;
28627;SDS011;15815;46.760;19.604;2023-02-02T16:01:47;7.05;;;3.72;;
28627;SDS011;15815;46.760;19.604;2023-02-02T16:04:28;7.63;;;3.30;;
28627;SDS011;15815;46.760;19.604;2023-02-02T16:07:01;9.68;;;5.18;;
28627;SDS011;15815;46.760;19.604;2023-02-02T16:09:30;8.65;;;4.03;;
28627;SDS011;15815;46.760;19.604;2023-02-02T16:11:58;14.00;;;5.55;;
28627;SDS011;15815;46.760;19.604;2023-02-02T16:14:24;8.63;;;3.65;;
28627;SDS011;15815;46.760;19.604;2023-02-02T16:16:49;10.85;;;3.45;;
28627;SDS011;15815;46.760;19.604;2023-02-02T16:19:19;9.27;;;3.67;;
28627;SDS011;15815;46.760;19.604;2023-02-02T16:21:52;9.13;;;3.60;;
28627;SDS011;15815;46.760;19.604;2023-02-02T16:24:23;11.13;;;3.78;;
28627;SDS011;15815;46.760;19.604;2023-02-02T16:26:53;10.77;;;4.50;;
28627;SDS011;15815;46.760;19.604;2023-02-02T16:29:21;16.25;;;6.88;;
28627;SDS011;15815;46.760;19.604;2023-02-02T16:31:48;12.15;;;5.72;;
28627;SDS011;15815;46.760;19.604;2023-02-02T16:34:41;16.48;;;6.00;;
28627;SDS011;15815;46.760;19.604;2023-02-02T16:37:11;11.93;;;5.82;;
28627;SDS011;15815;46.760;19.604;2023-02-02T16:39:43;7.97;;;3.65;;
28627;SDS011;15815;46.760;19.604;2023-02-02T16:42:10;10.55;;;5.18;;
28627;SDS011;15815;46.760;19.604;2023-02-02T16:44:47;12.85;;;5.70;;
28627;SDS011;15815;46.760;19.604;2023-02-02T16:49:51;17.75;;;7.20;;
28627;SDS011;15815;46.760;19.604;2023-02-02T16:52:52;15.95;;;6.85;;
28627;SDS011;15815;46.760;19.604;2023-02-02T16:55:21;18.25;;;6.57;;
28627;SDS011;15815;46.760;19.604;2023-02-02T16:57:48;18.75;;;8.45;;
28627;SDS011;15815;46.760;19.604;2023-02-02T17:00:19;16.05;;;7.68;;
28627;SDS011;15815;46.760;19.604;2023-02-02T17:02:50;30.20;;;7.43;;
28627;SDS011;15815;46.760;19.604;2023-02-02T17:05:21;16.02;;;7.15;;
28627;SDS011;15815;46.760;19.604;2023-02-02T17:07:52;19.65;;;10.25;;
28627;SDS011;15815;46.760;19.604;2023-02-02T17:10:25;28.02;;;11.75;;
28627;SDS011;15815;46.760;19.604;2023-02-02T17:12:54;34.00;;;14.07;;
28627;SDS011;15815;46.760;19.604;2023-02-02T17:17:53;16.95;;;7.15;;
28627;SDS011;15815;46.760;19.604;2023-02-02T17:20:19;18.40;;;6.22;;